createdAt,value
2018-12-03T00:00:26.008Z,88.50
2018-12-03T00:02:58.408Z,87.90
2018-12-03T00:05:28.838Z,86.70
2018-12-03T00:07:57.706Z,85.40
2018-12-03T00:10:26.278Z,84.80
2018-12-03T00:12:54.673Z,84.80
2018-12-03T00:15:22.976Z,84.70
2018-12-03T00:17:51.242Z,84.80
2018-12-03T00:20:19.474Z,84.10
2018-12-03T00:22:47.779Z,84.30
2018-12-03T00:25:16.077Z,84.60
2018-12-03T00:27:51.040Z,85.20
2018-12-03T00:30:19.575Z,85.50
2018-12-03T00:32:48.008Z,85.80
2018-12-03T00:35:16.344Z,86.10
2018-12-03T00:37:45.333Z,86.30
2018-12-03T00:40:13.745Z,86.50
2018-12-03T00:42:42.031Z,86.50
2018-12-03T00:45:10.330Z,86.70
2018-12-03T00:47:38.671Z,86.90
2018-12-03T00:50:07.133Z,86.90
2018-12-03T00:52:35.428Z,87.00
2018-12-03T00:55:04.221Z,87.00
2018-12-03T00:57:32.458Z,87.00
2018-12-03T01:00:00.795Z,87.00
2018-12-03T01:02:29.175Z,87.00
2018-12-03T01:04:57.438Z,87.00
2018-12-03T01:07:25.700Z,86.90
2018-12-03T01:09:53.970Z,87.00
2018-12-03T01:12:22.181Z,87.10
2018-12-03T01:14:50.500Z,87.00
2018-12-03T01:17:19.711Z,87.00
2018-12-03T01:19:47.913Z,86.80
2018-12-03T01:22:16.137Z,86.90
2018-12-03T01:24:44.451Z,86.80
2018-12-03T01:27:12.632Z,86.50
2018-12-03T01:29:40.899Z,86.80
2018-12-03T01:32:09.169Z,86.90
2018-12-03T01:34:37.381Z,86.90
2018-12-03T01:37:05.669Z,86.90
2018-12-03T01:39:34.475Z,86.80
2018-12-03T01:42:03.581Z,86.70
2018-12-03T01:44:31.797Z,86.70
2018-12-03T01:47:00.254Z,86.90
2018-12-03T01:49:28.441Z,86.90
2018-12-03T01:51:56.699Z,86.80
2018-12-03T01:54:24.898Z,86.80
2018-12-03T01:56:53.120Z,86.80
2018-12-03T01:59:21.346Z,87.10
2018-12-03T02:01:49.654Z,87.30
2018-12-03T02:04:17.919Z,87.60
2018-12-03T02:06:46.122Z,87.90
2018-12-03T02:09:15.431Z,87.90
2018-12-03T02:11:43.669Z,87.90
2018-12-03T02:14:11.921Z,87.70
2018-12-03T02:16:40.126Z,87.60
2018-12-03T02:19:08.289Z,87.60
2018-12-03T02:21:36.676Z,87.60
2018-12-03T02:24:05.392Z,87.60
2018-12-03T02:26:33.587Z,87.60
2018-12-03T02:29:01.800Z,87.50
2018-12-03T02:31:30.060Z,87.30
2018-12-03T02:33:58.630Z,87.50
2018-12-03T02:36:27.221Z,87.50
2018-12-03T02:38:56.344Z,87.50
2018-12-03T02:41:24.569Z,87.60
2018-12-03T02:43:52.813Z,87.60
2018-12-03T02:46:21.150Z,87.60
2018-12-03T02:48:50.571Z,87.60
2018-12-03T02:51:18.923Z,87.50
2018-12-03T02:53:47.122Z,87.60
2018-12-03T02:56:15.995Z,87.60
2018-12-03T02:58:44.208Z,88.00
2018-12-03T03:01:12.457Z,88.40
2018-12-03T03:03:40.654Z,88.60
2018-12-03T03:06:08.881Z,88.90
2018-12-03T03:08:37.471Z,88.80
2018-12-03T03:11:05.719Z,88.80
2018-12-03T03:13:33.884Z,88.60
2018-12-03T03:16:02.132Z,88.50
2018-12-03T03:18:30.334Z,88.30
2018-12-03T03:20:58.683Z,88.40
2018-12-03T03:23:26.963Z,88.40
2018-12-03T03:25:59.624Z,88.40
2018-12-03T03:28:27.898Z,88.40
2018-12-03T03:30:56.509Z,88.30
2018-12-03T03:33:24.925Z,88.20
2018-12-03T03:35:53.143Z,88.00
2018-12-03T03:38:21.710Z,87.90
2018-12-03T03:40:50.076Z,87.90
2018-12-03T03:43:18.496Z,87.80
2018-12-03T03:45:46.877Z,87.80
2018-12-03T03:48:15.341Z,87.70
2018-12-03T03:50:43.891Z,87.60
2018-12-03T03:53:12.365Z,87.40
2018-12-03T03:55:40.883Z,87.40
2018-12-03T03:58:09.191Z,87.30
2018-12-03T04:00:37.544Z,87.10
2018-12-03T04:03:06.100Z,87.00
2018-12-03T04:05:34.486Z,86.90
2018-12-03T04:08:02.898Z,86.80
2018-12-03T04:10:31.234Z,86.70
2018-12-03T04:12:59.730Z,86.70
2018-12-03T04:15:28.079Z,86.60
2018-12-03T04:17:58.194Z,86.50
2018-12-03T04:20:26.548Z,86.50
2018-12-03T04:22:55.420Z,87.10
2018-12-03T04:25:23.891Z,87.90
2018-12-03T04:27:52.249Z,88.80
2018-12-03T04:30:21.753Z,89.00
2018-12-03T04:32:50.948Z,89.20
2018-12-03T04:35:19.315Z,89.20
2018-12-03T04:37:47.758Z,89.10
2018-12-03T04:40:17.054Z,88.90
2018-12-03T04:42:45.472Z,88.80
2018-12-03T04:45:16.003Z,88.70
2018-12-03T04:47:44.380Z,88.60
2018-12-03T04:50:14.840Z,88.60
2018-12-03T04:52:43.288Z,88.30
2018-12-03T04:55:13.083Z,88.20
2018-12-03T04:57:41.521Z,88.20
2018-12-03T05:00:15.390Z,88.10
2018-12-03T05:02:44.532Z,88.00
2018-12-03T05:05:13.881Z,87.70
2018-12-03T05:07:42.174Z,87.60
2018-12-03T05:10:13.700Z,87.50
2018-12-03T05:12:42.452Z,87.40
2018-12-03T05:15:12.163Z,87.10
2018-12-03T05:17:40.579Z,87.00
2018-12-03T05:20:11.176Z,86.90
2018-12-03T05:22:39.566Z,86.80
2018-12-03T05:25:09.320Z,86.80
2018-12-03T05:27:37.949Z,86.70
2018-12-03T05:30:09.349Z,86.70
2018-12-03T05:32:37.645Z,87.00
2018-12-03T05:35:10.914Z,86.90
2018-12-03T05:37:39.169Z,87.10
2018-12-03T05:40:11.402Z,87.10
2018-12-03T05:42:41.364Z,87.10
2018-12-03T05:45:10.197Z,87.40
2018-12-03T05:47:38.517Z,87.40
2018-12-03T05:50:12.109Z,87.30
2018-12-03T05:52:40.532Z,87.30
2018-12-03T05:55:10.155Z,87.30
2018-12-03T05:57:38.355Z,87.20
2018-12-03T06:00:09.693Z,87.20
2018-12-03T06:02:38.010Z,87.20
2018-12-03T06:05:07.537Z,87.10
2018-12-03T06:07:36.184Z,87.30
2018-12-03T06:10:06.476Z,87.40
2018-12-03T06:12:34.694Z,87.60
2018-12-03T06:15:02.948Z,87.50
2018-12-03T06:17:31.415Z,87.50
2018-12-03T06:19:59.686Z,87.40
2018-12-03T06:22:27.954Z,87.30
2018-12-03T06:24:56.258Z,87.10
2018-12-03T06:27:24.460Z,87.40
2018-12-03T06:29:52.670Z,87.70
2018-12-03T06:32:20.898Z,87.70
2018-12-03T06:34:49.116Z,87.70
2018-12-03T06:37:17.414Z,87.60
2018-12-03T06:39:45.616Z,87.40
2018-12-03T06:42:13.955Z,87.40
2018-12-03T06:44:42.556Z,87.40
2018-12-03T06:47:11.525Z,87.30
2018-12-03T06:49:40.383Z,87.40
2018-12-03T06:52:08.096Z,87.70
2018-12-03T06:54:37.274Z,87.60
2018-12-03T06:57:05.874Z,87.70
2018-12-03T06:59:34.276Z,87.70
2018-12-03T07:02:02.609Z,87.70
2018-12-03T07:04:30.983Z,88.00
2018-12-03T07:06:59.191Z,87.90
2018-12-03T07:09:27.585Z,87.80
2018-12-03T07:11:55.767Z,87.90
2018-12-03T07:14:24.088Z,88.00
2018-12-03T07:16:52.299Z,88.30
2018-12-03T07:19:20.736Z,88.50
2018-12-03T07:21:49.474Z,88.30
2018-12-03T07:24:17.725Z,88.30
2018-12-03T07:26:45.953Z,88.40
2018-12-03T07:29:14.287Z,88.50
2018-12-03T07:31:43.001Z,88.80
2018-12-03T07:34:11.283Z,88.80
2018-12-03T07:36:39.600Z,88.90
2018-12-03T07:39:08.063Z,89.00
2018-12-03T07:41:36.280Z,88.90
2018-12-03T07:44:05.181Z,88.80
2018-12-03T07:46:33.462Z,88.50
2018-12-03T07:49:01.693Z,88.20
2018-12-03T07:51:29.975Z,87.90
2018-12-03T07:53:58.251Z,87.60
2018-12-03T07:56:27.116Z,87.70
2018-12-03T07:58:55.392Z,87.90
2018-12-03T08:01:23.860Z,87.70
2018-12-03T08:03:52.435Z,87.60
2018-12-03T08:06:21.121Z,87.70
2018-12-03T08:08:50.909Z,87.80
2018-12-03T08:11:19.341Z,87.80
2018-12-03T08:13:47.621Z,87.80
2018-12-03T08:16:15.840Z,87.80
2018-12-03T08:18:44.088Z,88.20
2018-12-03T08:21:12.342Z,88.20
2018-12-03T08:23:50.055Z,88.10
2018-12-03T08:26:18.670Z,87.90
2018-12-03T08:28:46.933Z,87.70
2018-12-03T08:31:15.333Z,87.40
2018-12-03T08:33:43.631Z,87.50
2018-12-03T08:36:11.845Z,87.30
2018-12-03T08:38:40.717Z,87.50
2018-12-03T08:41:08.957Z,87.40
2018-12-03T08:43:37.649Z,87.20
2018-12-03T08:46:07.852Z,86.90
2018-12-03T08:48:38.535Z,87.10
2018-12-03T08:51:07.479Z,87.10
2018-12-03T08:53:35.701Z,86.90
2018-12-03T08:56:04.103Z,86.70
2018-12-03T08:58:32.273Z,86.50
2018-12-03T09:01:06.813Z,86.30
2018-12-03T09:03:35.382Z,86.20
2018-12-03T09:06:11.095Z,86.00
2018-12-03T09:08:39.516Z,86.00
2018-12-03T09:11:10.789Z,86.10
2018-12-03T09:13:39.128Z,86.00
2018-12-03T09:16:07.357Z,86.10
2018-12-03T09:18:39.101Z,85.90
2018-12-03T09:21:12.437Z,85.90
2018-12-03T09:23:41.966Z,85.80
2018-12-03T09:26:10.809Z,85.60
2018-12-03T09:28:39.076Z,85.40
2018-12-03T09:31:07.348Z,85.60
2018-12-03T09:33:35.538Z,85.60
2018-12-03T09:36:03.795Z,85.60
2018-12-03T09:38:40.541Z,85.60
2018-12-03T09:41:08.850Z,85.60
2018-12-03T09:43:37.861Z,85.50
2018-12-03T09:46:06.072Z,85.70
2018-12-03T09:48:34.331Z,85.70
2018-12-03T09:51:02.576Z,85.90
2018-12-03T09:53:31.049Z,85.80
2018-12-03T09:55:59.275Z,85.40
2018-12-03T09:58:27.685Z,86.00
2018-12-03T10:00:55.926Z,86.10
2018-12-03T10:03:28.428Z,86.20
2018-12-03T10:05:58.588Z,86.10
2018-12-03T10:08:31.132Z,86.10
2018-12-03T10:11:01.757Z,86.00
2018-12-03T10:13:30.781Z,85.70
2018-12-03T10:15:59.084Z,85.80
2018-12-03T10:18:27.265Z,85.90
2018-12-03T10:20:57.853Z,85.90
2018-12-03T10:23:26.840Z,85.60
2018-12-03T10:25:58.148Z,85.50
2018-12-03T10:28:27.520Z,85.20
2018-12-03T10:30:57.492Z,84.90
2018-12-03T10:33:30.161Z,84.60
2018-12-03T10:35:59.951Z,84.90
2018-12-03T10:38:32.534Z,84.60
2018-12-03T10:41:03.532Z,84.80
2018-12-03T10:43:32.034Z,84.80
2018-12-03T10:46:00.280Z,84.60
2018-12-03T10:48:28.516Z,84.30
2018-12-03T10:50:56.719Z,84.10
2018-12-03T10:53:29.072Z,83.50
2018-12-03T10:55:57.801Z,83.30
2018-12-03T10:58:26.070Z,82.60
2018-12-03T11:01:03.588Z,82.60
2018-12-03T11:03:37.336Z,82.70
2018-12-03T11:06:11.485Z,83.30
2018-12-03T11:08:40.000Z,82.50
2018-12-03T11:11:08.196Z,82.60
2018-12-03T11:13:36.455Z,83.40
2018-12-03T11:16:05.448Z,83.50
2018-12-03T11:18:43.170Z,83.10
2018-12-03T11:21:11.463Z,83.50
2018-12-03T11:23:41.051Z,83.50
2018-12-03T11:26:09.601Z,84.10
2018-12-03T11:28:40.056Z,84.40
2018-12-03T11:31:10.392Z,84.30
2018-12-03T11:33:38.610Z,84.40
2018-12-03T11:36:07.126Z,84.60
2018-12-03T11:38:44.524Z,84.40
2018-12-03T11:41:12.770Z,84.30
2018-12-03T11:43:41.658Z,84.10
2018-12-03T11:46:09.860Z,84.40
2018-12-03T11:48:38.276Z,84.40
2018-12-03T11:51:06.501Z,84.00
2018-12-03T11:53:34.739Z,83.80
2018-12-03T11:56:03.006Z,83.60
2018-12-03T11:58:31.219Z,83.80
2018-12-03T12:00:59.671Z,83.70
2018-12-03T12:03:27.851Z,83.40
2018-12-03T12:05:56.117Z,83.70
2018-12-03T12:08:24.393Z,84.00
2018-12-03T12:10:52.646Z,83.80
2018-12-03T12:13:20.857Z,84.00
2018-12-03T12:15:49.100Z,84.00
2018-12-03T12:18:17.366Z,84.20
2018-12-03T12:20:46.040Z,84.50
2018-12-03T12:23:14.470Z,84.80
2018-12-03T12:25:42.789Z,85.20
2018-12-03T12:28:11.252Z,85.50
2018-12-03T12:30:39.570Z,85.70
2018-12-03T12:33:07.822Z,86.20
2018-12-03T12:35:36.054Z,86.50
2018-12-03T12:38:04.334Z,86.50
2018-12-03T12:40:32.548Z,86.80
2018-12-03T12:43:00.768Z,87.10
2018-12-03T12:45:35.841Z,87.40
2018-12-03T12:48:04.104Z,87.50
2018-12-03T12:50:32.347Z,87.60
2018-12-03T12:53:00.551Z,87.70
2018-12-03T12:55:28.758Z,87.90
2018-12-03T12:57:56.954Z,87.90
2018-12-03T13:00:25.341Z,87.60
2018-12-03T13:02:54.055Z,87.40
2018-12-03T13:05:22.352Z,87.50
2018-12-03T13:07:50.754Z,87.40
2018-12-03T13:10:19.160Z,87.60
2018-12-03T13:12:51.016Z,87.70
2018-12-03T13:15:19.406Z,87.60
2018-12-03T13:17:48.216Z,87.60
2018-12-03T13:20:17.682Z,87.50
2018-12-03T13:22:46.126Z,87.60
2018-12-03T13:25:17.962Z,87.40
2018-12-03T13:27:46.595Z,87.30
2018-12-03T13:30:16.146Z,87.40
2018-12-03T13:32:44.804Z,87.60
2018-12-03T13:35:13.688Z,87.80
2018-12-03T13:37:41.941Z,87.60
2018-12-03T13:40:15.505Z,87.50
2018-12-03T13:42:44.869Z,87.60
2018-12-03T13:45:18.985Z,87.60
2018-12-03T13:47:48.520Z,87.50
2018-12-03T13:50:17.329Z,87.60
2018-12-03T13:52:45.896Z,87.50
2018-12-03T13:55:18.445Z,87.40
2018-12-03T13:57:46.717Z,87.30
2018-12-03T14:00:23.204Z,87.20
2018-12-03T14:02:59.476Z,86.90
2018-12-03T14:05:29.087Z,87.10
2018-12-03T14:08:08.665Z,87.00
2018-12-03T14:10:55.784Z,87.10
2018-12-03T14:13:50.130Z,86.90
2018-12-03T14:16:42.596Z,87.00
2018-12-03T14:19:11.338Z,86.80
2018-12-03T14:21:50.386Z,86.80
2018-12-03T14:24:19.712Z,86.90
2018-12-03T14:26:48.068Z,86.90
2018-12-03T14:29:17.177Z,87.00
2018-12-03T14:31:45.463Z,87.00
2018-12-03T14:34:20.241Z,86.90
2018-12-03T14:36:48.539Z,86.80
2018-12-03T14:39:17.360Z,86.70
2018-12-03T14:41:45.605Z,86.50
2018-12-03T14:44:13.853Z,86.30
2018-12-03T14:46:42.110Z,86.30
2018-12-03T14:49:10.365Z,86.20
2018-12-03T14:51:38.736Z,86.10
2018-12-03T14:54:06.984Z,86.10
2018-12-03T14:56:35.221Z,86.00
2018-12-03T14:59:03.513Z,86.00
2018-12-03T15:01:31.758Z,85.80
2018-12-03T15:04:00.034Z,85.80
2018-12-03T15:06:28.286Z,85.60
2018-12-03T15:08:56.501Z,85.40
2018-12-03T15:11:24.819Z,85.40
2018-12-03T15:13:53.078Z,85.70
2018-12-03T15:16:21.877Z,86.00
2018-12-03T15:18:50.114Z,86.00
2018-12-03T15:21:18.338Z,85.80
2018-12-03T15:23:46.621Z,86.10
2018-12-03T15:26:14.895Z,86.10
2018-12-03T15:28:43.204Z,86.00
2018-12-03T15:31:11.450Z,86.10
2018-12-03T15:33:39.776Z,86.10
2018-12-03T15:36:08.234Z,86.20
2018-12-03T15:38:36.470Z,86.20
2018-12-03T15:41:04.912Z,86.10
2018-12-03T15:43:33.517Z,86.10
2018-12-03T15:46:01.918Z,86.00
2018-12-03T15:48:30.949Z,86.10
2018-12-03T15:50:59.262Z,86.00
2018-12-03T15:53:27.656Z,86.30
2018-12-03T15:55:55.940Z,86.30
2018-12-03T15:58:24.211Z,86.20
2018-12-03T16:00:52.698Z,86.10
2018-12-03T16:03:21.146Z,86.30
2018-12-03T16:05:49.407Z,86.40
2018-12-03T16:08:17.619Z,86.30
2018-12-03T16:10:46.183Z,86.40
2018-12-03T16:13:14.760Z,86.60
2018-12-03T16:15:43.100Z,86.90
2018-12-03T16:18:11.648Z,87.00
2018-12-03T16:20:40.151Z,87.40
2018-12-03T16:23:08.412Z,87.50
2018-12-03T16:25:36.927Z,87.50
2018-12-03T16:28:05.260Z,87.50
2018-12-03T16:30:33.743Z,87.50
2018-12-03T16:33:01.942Z,87.60
2018-12-03T16:35:31.073Z,87.70
2018-12-03T16:37:59.284Z,87.80
2018-12-03T16:40:28.316Z,88.00
2018-12-03T16:42:56.540Z,88.00
2018-12-03T16:45:24.813Z,87.90
2018-12-03T16:47:53.106Z,87.90
2018-12-03T16:50:21.917Z,87.50
2018-12-03T16:52:49.673Z,87.50
2018-12-03T16:55:17.856Z,87.50
2018-12-03T16:57:46.064Z,87.20
2018-12-03T17:00:14.761Z,86.80
2018-12-03T17:02:43.068Z,86.80
2018-12-03T17:05:11.545Z,86.70
2018-12-03T17:07:39.826Z,86.40
2018-12-03T17:10:14.114Z,86.30
2018-12-03T17:12:42.577Z,86.20
2018-12-03T17:15:11.057Z,86.20
2018-12-03T17:17:39.380Z,86.10
2018-12-03T17:20:13.368Z,86.00
2018-12-03T17:23:02.801Z,85.90
2018-12-03T17:25:31.161Z,85.80
2018-12-03T17:27:59.859Z,85.70
2018-12-03T17:30:28.139Z,85.70
2018-12-03T17:32:56.589Z,85.70
2018-12-03T17:36:04.347Z,85.70
2018-12-03T17:38:33.054Z,85.60
2018-12-03T17:41:00.528Z,85.50
2018-12-03T17:43:28.011Z,85.40
2018-12-03T17:45:55.535Z,85.30
2018-12-03T17:48:23.122Z,85.30
2018-12-03T17:50:50.556Z,85.30
2018-12-03T17:53:17.998Z,85.40
2018-12-03T17:55:45.449Z,85.40
2018-12-03T17:58:12.901Z,85.40
2018-12-03T18:00:40.325Z,85.20
2018-12-03T18:03:07.785Z,85.10
2018-12-03T18:05:35.420Z,85.10
2018-12-03T18:08:02.895Z,85.00
2018-12-03T18:10:30.625Z,84.90
2018-12-03T18:12:58.158Z,85.00
2018-12-03T18:15:25.876Z,84.90
2018-12-03T18:17:53.335Z,85.00
2018-12-03T18:20:20.829Z,84.90
2018-12-03T18:22:48.271Z,85.00
2018-12-03T18:25:15.733Z,85.10
2018-12-03T18:27:43.168Z,85.10
2018-12-03T18:30:10.622Z,85.30
2018-12-03T18:32:38.104Z,85.40
2018-12-03T18:35:05.618Z,85.50
2018-12-03T18:37:33.124Z,85.40
2018-12-03T18:40:00.578Z,85.40
2018-12-03T18:42:28.024Z,85.40
2018-12-03T18:44:55.494Z,85.40
2018-12-03T18:47:23.033Z,85.30
2018-12-03T18:49:50.582Z,85.30
2018-12-03T18:52:18.037Z,85.30
2018-12-03T18:54:45.503Z,85.20
2018-12-03T18:57:13.636Z,85.20
2018-12-03T18:59:41.162Z,85.00
2018-12-03T19:02:08.623Z,84.90
2018-12-03T19:04:37.151Z,85.10
2018-12-03T19:07:04.737Z,85.10
2018-12-03T19:09:32.189Z,85.20
2018-12-03T19:11:59.626Z,85.00
2018-12-03T19:14:27.089Z,85.00
2018-12-03T19:16:54.552Z,84.80
2018-12-03T19:19:22.034Z,84.90
2018-12-03T19:21:49.466Z,85.10
2018-12-03T19:24:16.916Z,85.20
2018-12-03T19:26:44.373Z,85.10
2018-12-03T19:29:12.208Z,85.30
2018-12-03T19:31:39.670Z,85.40
2018-12-03T19:34:07.148Z,85.40
2018-12-03T19:36:34.630Z,85.50
2018-12-03T19:39:02.144Z,85.80
2018-12-03T19:41:29.633Z,85.80
2018-12-03T19:43:57.089Z,86.10
2018-12-03T19:46:24.611Z,86.40
2018-12-03T19:48:52.127Z,86.60
2018-12-03T19:51:19.567Z,86.70
2018-12-03T19:53:48.652Z,86.70
2018-12-03T19:56:16.134Z,86.60
2018-12-03T19:58:43.664Z,86.50
2018-12-03T20:01:11.138Z,86.60
2018-12-03T20:03:38.592Z,86.50
2018-12-03T20:06:06.048Z,86.60
2018-12-03T20:08:33.552Z,86.50
2018-12-03T20:11:01.121Z,86.60
2018-12-03T20:13:28.588Z,86.40
2018-12-03T20:15:56.114Z,86.60
2018-12-03T20:18:23.603Z,86.60
2018-12-03T20:20:51.711Z,86.50
2018-12-03T20:23:19.308Z,86.40
2018-12-03T20:25:46.779Z,86.30
2018-12-03T20:28:14.251Z,86.10
2018-12-03T20:30:42.963Z,85.80
2018-12-03T20:33:10.623Z,86.00
2018-12-03T20:35:38.639Z,85.80
2018-12-03T20:38:06.428Z,85.70
2018-12-03T20:40:34.016Z,85.40
2018-12-03T20:43:01.530Z,85.60
2018-12-03T20:45:33.006Z,85.60
2018-12-03T20:48:00.568Z,85.50
2018-12-03T20:50:28.087Z,85.40
2018-12-03T20:52:55.556Z,85.50
2018-12-03T20:55:23.146Z,85.40
2018-12-03T20:57:50.669Z,85.40
2018-12-03T21:00:18.133Z,85.20
2018-12-03T21:02:45.737Z,85.40
2018-12-03T21:05:13.258Z,85.40
2018-12-03T21:07:40.923Z,84.90
2018-12-03T21:10:08.471Z,84.60
2018-12-03T21:12:36.108Z,84.70
2018-12-03T21:15:03.945Z,84.70
2018-12-03T21:17:32.225Z,84.60
2018-12-03T21:20:00.747Z,84.40
2018-12-03T21:22:28.229Z,84.20
2018-12-03T21:24:55.775Z,84.00
2018-12-03T21:27:23.344Z,83.80
2018-12-03T21:29:50.817Z,83.80
2018-12-03T21:32:18.291Z,83.80
2018-12-03T21:34:45.805Z,84.00
2018-12-03T21:37:13.355Z,83.80
2018-12-03T21:39:40.880Z,83.90
2018-12-03T21:42:08.427Z,83.70
2018-12-03T21:44:35.957Z,83.70
2018-12-03T21:47:03.575Z,83.20
2018-12-03T21:49:31.034Z,83.70
2018-12-03T21:51:58.591Z,83.30
2018-12-03T21:54:26.090Z,83.30
2018-12-03T21:56:53.628Z,83.10
2018-12-03T21:59:21.090Z,82.80
2018-12-03T22:01:49.516Z,82.70
2018-12-03T22:04:17.003Z,82.60
2018-12-03T22:06:44.553Z,82.70
2018-12-03T22:09:12.026Z,82.60
2018-12-03T22:11:39.547Z,82.80
2018-12-03T22:14:07.021Z,82.60
2018-12-03T22:16:34.506Z,82.50
2018-12-03T22:19:01.965Z,82.20
2018-12-03T22:21:29.473Z,82.20
2018-12-03T22:23:56.992Z,82.00
2018-12-03T22:26:24.539Z,81.30
2018-12-03T22:28:52.090Z,81.60
2018-12-03T22:31:19.537Z,81.80
2018-12-03T22:33:47.028Z,81.50
2018-12-03T22:36:14.606Z,81.50
2018-12-03T22:38:42.462Z,81.40
2018-12-03T22:41:09.920Z,80.90
2018-12-03T22:43:37.721Z,81.10
2018-12-03T22:46:05.193Z,81.60
2018-12-03T22:48:32.641Z,81.80
2018-12-03T22:51:00.110Z,81.80
2018-12-03T22:53:27.572Z,81.50
2018-12-03T22:55:55.085Z,82.00
2018-12-03T22:58:22.552Z,81.90
2018-12-03T23:00:56.551Z,81.90
2018-12-03T23:03:24.664Z,81.80
2018-12-03T23:05:52.372Z,81.60
2018-12-03T23:08:19.842Z,81.80
2018-12-03T23:10:47.267Z,82.00
2018-12-03T23:13:14.809Z,82.20
2018-12-03T23:15:42.263Z,82.50
2018-12-03T23:18:09.737Z,82.50
2018-12-03T23:20:37.168Z,82.90
2018-12-03T23:23:04.613Z,83.10
2018-12-03T23:25:32.079Z,83.00
2018-12-03T23:27:59.566Z,83.00
2018-12-03T23:30:27.676Z,83.10
2018-12-03T23:32:56.168Z,83.40
2018-12-03T23:35:23.661Z,83.20
2018-12-03T23:37:51.103Z,83.10
2018-12-03T23:40:18.567Z,83.10
2018-12-03T23:42:46.034Z,82.80
2018-12-03T23:45:13.812Z,82.80
2018-12-03T23:47:41.416Z,82.50
2018-12-03T23:50:08.879Z,82.50
2018-12-03T23:52:36.471Z,82.40
2018-12-03T23:55:04.257Z,82.60
2018-12-03T23:57:31.817Z,82.80
2018-12-03T23:59:59.383Z,82.80
